sensor_id;sensor_type;location;lat;lon;timestamp;pressure;altitude;pressure_sealevel;temperature;humidity
63700;BME280;49845;47.130;142.766;2023-12-20T00:01:50;100204.22;;;-7.85;100.00
63700;BME280;49845;47.130;142.766;2023-12-20T00:04:21;100196.19;;;-7.92;100.00
63700;BME280;49845;47.130;142.766;2023-12-20T00:06:51;100191.47;;;-8.01;100.00
63700;BME280;49845;47.130;142.766;2023-12-20T00:09:23;100214.91;;;-8.05;100.00
63700;BME280;49845;47.130;142.766;2023-12-20T00:11:54;100206.69;;;-8.01;100.00
63700;BME280;49845;47.130;142.766;2023-12-20T00:14:25;100211.94;;;-7.98;100.00
63700;BME280;49845;47.130;142.766;2023-12-20T00:16:55;100220.50;;;-7.96;100.00
63700;BME280;49845;47.130;142.766;2023-12-20T00:19:25;100201.78;;;-7.98;100.00
63700;BME280;49845;47.130;142.766;2023-12-20T00:21:56;100210.53;;;-7.93;100.00
63700;BME280;49845;47.130;142.766;2023-12-20T00:24:29;100212.44;;;-7.89;100.00
63700;BME280;49845;47.130;142.766;2023-12-20T00:27:00;100222.56;;;-7.89;100.00
63700;BME280;49845;47.130;142.766;2023-12-20T00:29:30;100214.03;;;-7.91;100.00
63700;BME280;49845;47.130;142.766;2023-12-20T00:32:01;100207.56;;;-7.86;100.00
63700;BME280;49845;47.130;142.766;2023-12-20T00:34:31;100206.16;;;-7.81;100.00
63700;BME280;49845;47.130;142.766;2023-12-20T00:37:02;100207.63;;;-7.84;100.00
63700;BME280;49845;47.130;142.766;2023-12-20T00:39:34;100215.66;;;-7.76;100.00
63700;BME280;49845;47.130;142.766;2023-12-20T00:42:05;100205.00;;;-7.71;100.00
63700;BME280;49845;47.130;142.766;2023-12-20T00:44:35;100207.69;;;-7.68;100.00
63700;BME280;49845;47.130;142.766;2023-12-20T00:47:06;100191.09;;;-7.77;100.00
63700;BME280;49845;47.130;142.766;2023-12-20T00:49:36;100198.81;;;-7.91;100.00
63700;BME280;49845;47.130;142.766;2023-12-20T00:52:06;100205.91;;;-8.00;100.00
63700;BME280;49845;47.130;142.766;2023-12-20T00:54:38;100203.63;;;-8.10;100.00
63700;BME280;49845;47.130;142.766;2023-12-20T00:57:09;100205.78;;;-8.16;100.00
63700;BME280;49845;47.130;142.766;2023-12-20T00:59:39;100182.03;;;-8.18;100.00
63700;BME280;49845;47.130;142.766;2023-12-20T01:02:10;100198.81;;;-8.20;100.00
63700;BME280;49845;47.130;142.766;2023-12-20T01:04:40;100203.19;;;-8.18;100.00
63700;BME280;49845;47.130;142.766;2023-12-20T01:07:11;100205.19;;;-8.12;100.00
63700;BME280;49845;47.130;142.766;2023-12-20T01:09:43;100198.81;;;-8.06;100.00
63700;BME280;49845;47.130;142.766;2023-12-20T01:12:13;100196.56;;;-8.01;100.00
63700;BME280;49845;47.130;142.766;2023-12-20T01:14:43;100188.16;;;-8.00;100.00
63700;BME280;49845;47.130;142.766;2023-12-20T01:17:13;100193.38;;;-7.97;100.00
63700;BME280;49845;47.130;142.766;2023-12-20T01:19:43;100186.75;;;-7.95;100.00
63700;BME280;49845;47.130;142.766;2023-12-20T01:22:14;100196.34;;;-7.89;100.00
63700;BME280;49845;47.130;142.766;2023-12-20T01:24:46;100189.88;;;-7.84;100.00
63700;BME280;49845;47.130;142.766;2023-12-20T01:27:17;100185.50;;;-7.87;100.00
63700;BME280;49845;47.130;142.766;2023-12-20T01:29:47;100187.59;;;-7.79;100.00
63700;BME280;49845;47.130;142.766;2023-12-20T01:32:17;100190.47;;;-7.73;100.00
63700;BME280;49845;47.130;142.766;2023-12-20T01:34:48;100187.41;;;-7.68;100.00
63700;BME280;49845;47.130;142.766;2023-12-20T01:37:17;100181.63;;;-7.65;100.00
63700;BME280;49845;47.130;142.766;2023-12-20T01:39:49;100189.09;;;-7.52;100.00
63700;BME280;49845;47.130;142.766;2023-12-20T01:42:19;100172.81;;;-7.41;100.00
63700;BME280;49845;47.130;142.766;2023-12-20T01:44:50;100175.50;;;-7.38;100.00
63700;BME280;49845;47.130;142.766;2023-12-20T01:47:20;100179.97;;;-7.33;100.00
63700;BME280;49845;47.130;142.766;2023-12-20T01:49:51;100183.44;;;-7.31;100.00
63700;BME280;49845;47.130;142.766;2023-12-20T01:52:22;100185.50;;;-7.24;100.00
63700;BME280;49845;47.130;142.766;2023-12-20T01:54:54;100180.44;;;-7.24;100.00
63700;BME280;49845;47.130;142.766;2023-12-20T01:57:31;100180.13;;;-7.30;100.00
63700;BME280;49845;47.130;142.766;2023-12-20T02:00:02;100178.53;;;-7.28;100.00
63700;BME280;49845;47.130;142.766;2023-12-20T02:02:33;100172.97;;;-7.38;100.00
63700;BME280;49845;47.130;142.766;2023-12-20T02:05:05;100183.97;;;-7.37;100.00
63700;BME280;49845;47.130;142.766;2023-12-20T02:07:36;100178.94;;;-7.52;100.00
63700;BME280;49845;47.130;142.766;2023-12-20T02:10:09;100174.50;;;-7.56;100.00
63700;BME280;49845;47.130;142.766;2023-12-20T02:12:40;100180.03;;;-7.63;100.00
63700;BME280;49845;47.130;142.766;2023-12-20T02:15:10;100178.13;;;-7.67;100.00
63700;BME280;49845;47.130;142.766;2023-12-20T02:17:41;100173.19;;;-7.64;100.00
63700;BME280;49845;47.130;142.766;2023-12-20T02:20:12;100176.53;;;-7.65;100.00
63700;BME280;49845;47.130;142.766;2023-12-20T02:22:44;100178.28;;;-7.64;100.00
63700;BME280;49845;47.130;142.766;2023-12-20T02:25:14;100180.91;;;-7.63;100.00
63700;BME280;49845;47.130;142.766;2023-12-20T02:27:45;100173.72;;;-7.55;100.00
63700;BME280;49845;47.130;142.766;2023-12-20T02:30:16;100172.47;;;-7.47;100.00
63700;BME280;49845;47.130;142.766;2023-12-20T02:32:47;100179.63;;;-7.40;100.00
63700;BME280;49845;47.130;142.766;2023-12-20T02:35:18;100167.72;;;-7.41;100.00
63700;BME280;49845;47.130;142.766;2023-12-20T02:37:50;100176.78;;;-7.29;100.00
63700;BME280;49845;47.130;142.766;2023-12-20T02:40:20;100169.31;;;-7.43;100.00
63700;BME280;49845;47.130;142.766;2023-12-20T02:42:51;100171.59;;;-7.47;100.00
63700;BME280;49845;47.130;142.766;2023-12-20T02:45:21;100162.94;;;-7.51;100.00
63700;BME280;49845;47.130;142.766;2023-12-20T02:47:51;100160.41;;;-7.51;100.00
63700;BME280;49845;47.130;142.766;2023-12-20T02:50:22;100159.00;;;-7.46;100.00
63700;BME280;49845;47.130;142.766;2023-12-20T02:52:54;100146.75;;;-7.53;100.00
63700;BME280;49845;47.130;142.766;2023-12-20T02:55:24;100147.06;;;-7.47;100.00
63700;BME280;49845;47.130;142.766;2023-12-20T02:57:55;100148.50;;;-7.52;99.86
63700;BME280;49845;47.130;142.766;2023-12-20T03:00:25;100145.94;;;-7.68;99.65
63700;BME280;49845;47.130;142.766;2023-12-20T03:02:56;100157.97;;;-7.64;100.00
63700;BME280;49845;47.130;142.766;2023-12-20T03:05:28;100140.88;;;-7.68;100.00
63700;BME280;49845;47.130;142.766;2023-12-20T03:08:00;100155.56;;;-7.77;100.00
63700;BME280;49845;47.130;142.766;2023-12-20T03:10:30;100148.94;;;-7.75;100.00
63700;BME280;49845;47.130;142.766;2023-12-20T03:13:01;100155.72;;;-7.74;99.72
63700;BME280;49845;47.130;142.766;2023-12-20T03:15:31;100142.28;;;-7.73;99.20
63700;BME280;49845;47.130;142.766;2023-12-20T03:18:02;100147.50;;;-7.70;98.22
63700;BME280;49845;47.130;142.766;2023-12-20T03:20:32;100141.34;;;-7.59;97.65
63700;BME280;49845;47.130;142.766;2023-12-20T03:23:04;100148.28;;;-7.40;96.05
63700;BME280;49845;47.130;142.766;2023-12-20T03:25:35;100141.06;;;-7.32;96.12
63700;BME280;49845;47.130;142.766;2023-12-20T03:28:05;100127.56;;;-7.31;94.57
63700;BME280;49845;47.130;142.766;2023-12-20T03:30:36;100141.88;;;-7.33;94.73
63700;BME280;49845;47.130;142.766;2023-12-20T03:33:06;100122.19;;;-7.38;94.13
63700;BME280;49845;47.130;142.766;2023-12-20T03:35:37;100134.88;;;-7.38;94.13
63700;BME280;49845;47.130;142.766;2023-12-20T03:38:09;100109.19;;;-7.44;94.48
63700;BME280;49845;47.130;142.766;2023-12-20T03:40:40;100137.41;;;-7.38;94.59
63700;BME280;49845;47.130;142.766;2023-12-20T03:43:10;100140.13;;;-7.34;95.24
63700;BME280;49845;47.130;142.766;2023-12-20T03:45:41;100129.19;;;-7.33;94.85
63700;BME280;49845;47.130;142.766;2023-12-20T03:48:12;100124.91;;;-7.18;95.53
63700;BME280;49845;47.130;142.766;2023-12-20T03:50:42;100123.16;;;-7.19;95.44
63700;BME280;49845;47.130;142.766;2023-12-20T03:53:14;100107.13;;;-7.34;95.29
63700;BME280;49845;47.130;142.766;2023-12-20T03:55:44;100120.63;;;-7.35;94.96
63700;BME280;49845;47.130;142.766;2023-12-20T03:58:15;100127.63;;;-7.46;95.69
63700;BME280;49845;47.130;142.766;2023-12-20T04:00:45;100116.69;;;-7.62;95.62
63700;BME280;49845;47.130;142.766;2023-12-20T04:03:16;100129.56;;;-7.58;96.04
63700;BME280;49845;47.130;142.766;2023-12-20T04:05:46;100122.81;;;-7.58;95.84
63700;BME280;49845;47.130;142.766;2023-12-20T04:08:18;100120.38;;;-7.71;95.79
63700;BME280;49845;47.130;142.766;2023-12-20T04:10:49;100135.13;;;-7.81;96.53
63700;BME280;49845;47.130;142.766;2023-12-20T04:13:19;100125.13;;;-7.77;96.93
63700;BME280;49845;47.130;142.766;2023-12-20T04:15:50;100116.41;;;-7.83;97.00
63700;BME280;49845;47.130;142.766;2023-12-20T04:18:20;100136.19;;;-7.92;96.88
63700;BME280;49845;47.130;142.766;2023-12-20T04:20:51;100140.25;;;-8.10;97.68
63700;BME280;49845;47.130;142.766;2023-12-20T04:23:24;100135.00;;;-8.13;98.72
63700;BME280;49845;47.130;142.766;2023-12-20T04:25:55;100135.00;;;-8.13;98.41
63700;BME280;49845;47.130;142.766;2023-12-20T04:28:25;100140.78;;;-8.16;98.59
63700;BME280;49845;47.130;142.766;2023-12-20T04:30:58;100132.91;;;-8.20;99.12
63700;BME280;49845;47.130;142.766;2023-12-20T04:33:29;100129.25;;;-8.26;99.05
63700;BME280;49845;47.130;142.766;2023-12-20T04:35:59;100130.28;;;-8.37;99.21
63700;BME280;49845;47.130;142.766;2023-12-20T04:38:31;100142.34;;;-8.33;99.95
63700;BME280;49845;47.130;142.766;2023-12-20T04:41:01;100144.09;;;-8.32;100.00
63700;BME280;49845;47.130;142.766;2023-12-20T04:43:32;100130.28;;;-8.37;99.99
63700;BME280;49845;47.130;142.766;2023-12-20T04:46:02;100134.13;;;-8.29;100.00
63700;BME280;49845;47.130;142.766;2023-12-20T04:48:33;100136.06;;;-8.25;99.76
63700;BME280;49845;47.130;142.766;2023-12-20T04:51:04;100138.59;;;-8.25;99.94
63700;BME280;49845;47.130;142.766;2023-12-20T04:53:36;100085.59;;;-8.51;99.84
63700;BME280;49845;47.130;142.766;2023-12-20T04:56:06;100153.63;;;-8.28;99.71
63700;BME280;49845;47.130;142.766;2023-12-20T04:58:37;100131.25;;;-8.35;99.06
63700;BME280;49845;47.130;142.766;2023-12-20T05:01:08;100148.19;;;-8.34;98.71
63700;BME280;49845;47.130;142.766;2023-12-20T05:03:38;100144.13;;;-8.47;98.94
63700;BME280;49845;47.130;142.766;2023-12-20T05:06:09;100134.69;;;-8.49;99.40
63700;BME280;49845;47.130;142.766;2023-12-20T05:08:42;100155.59;;;-8.53;99.30
63700;BME280;49845;47.130;142.766;2023-12-20T05:11:12;100142.91;;;-8.53;99.46
63700;BME280;49845;47.130;142.766;2023-12-20T05:13:44;100169.88;;;-8.69;98.77
63700;BME280;49845;47.130;142.766;2023-12-20T05:16:17;100143.94;;;-8.64;98.99
63700;BME280;49845;47.130;142.766;2023-12-20T05:18:48;100133.47;;;-8.71;99.74
63700;BME280;49845;47.130;142.766;2023-12-20T05:21:20;100163.69;;;-8.59;99.80
63700;BME280;49845;47.130;142.766;2023-12-20T05:23:53;100163.00;;;-8.56;99.94
63700;BME280;49845;47.130;142.766;2023-12-20T05:26:23;100156.97;;;-8.58;100.00
63700;BME280;49845;47.130;142.766;2023-12-20T05:28:54;100157.75;;;-8.59;100.00
63700;BME280;49845;47.130;142.766;2023-12-20T05:31:24;100164.38;;;-8.61;100.00
63700;BME280;49845;47.130;142.766;2023-12-20T05:33:54;100160.91;;;-8.63;100.00
63700;BME280;49845;47.130;142.766;2023-12-20T05:36:25;100164.22;;;-8.64;100.00
63700;BME280;49845;47.130;142.766;2023-12-20T05:38:57;100165.97;;;-8.63;100.00
63700;BME280;49845;47.130;142.766;2023-12-20T05:41:28;100177.84;;;-8.62;100.00
63700;BME280;49845;47.130;142.766;2023-12-20T05:43:58;100169.09;;;-8.68;99.73
63700;BME280;49845;47.130;142.766;2023-12-20T05:46:28;100159.94;;;-8.65;99.74
63700;BME280;49845;47.130;142.766;2023-12-20T05:48:59;100174.16;;;-8.68;100.00
63700;BME280;49845;47.130;142.766;2023-12-20T05:51:29;100174.69;;;-8.73;100.00
63700;BME280;49845;47.130;142.766;2023-12-20T05:54:01;100175.19;;;-8.79;100.00
63700;BME280;49845;47.130;142.766;2023-12-20T05:56:32;100169.59;;;-8.88;100.00
63700;BME280;49845;47.130;142.766;2023-12-20T05:59:03;100182.78;;;-8.79;100.00
63700;BME280;49845;47.130;142.766;2023-12-20T06:01:33;100179.91;;;-8.85;100.00
63700;BME280;49845;47.130;142.766;2023-12-20T06:04:04;100190.19;;;-8.82;100.00
63700;BME280;49845;47.130;142.766;2023-12-20T06:06:34;100173.75;;;-8.88;100.00
63700;BME280;49845;47.130;142.766;2023-12-20T06:09:12;100186.94;;;-8.94;100.00
63700;BME280;49845;47.130;142.766;2023-12-20T06:11:43;100190.66;;;-9.02;100.00
63700;BME280;49845;47.130;142.766;2023-12-20T06:14:14;100171.63;;;-9.10;100.00
63700;BME280;49845;47.130;142.766;2023-12-20T06:16:45;100185.03;;;-9.12;100.00
63700;BME280;49845;47.130;142.766;2023-12-20T06:19:16;100165.50;;;-9.14;100.00
63700;BME280;49845;47.130;142.766;2023-12-20T06:21:46;100179.81;;;-9.15;100.00
63700;BME280;49845;47.130;142.766;2023-12-20T06:24:18;100188.97;;;-9.17;100.00
63700;BME280;49845;47.130;142.766;2023-12-20T06:26:55;100193.25;;;-9.16;100.00
63700;BME280;49845;47.130;142.766;2023-12-20T06:29:26;100194.81;;;-9.18;100.00
63700;BME280;49845;47.130;142.766;2023-12-20T06:31:56;100198.31;;;-9.16;100.00
63700;BME280;49845;47.130;142.766;2023-12-20T06:34:27;100197.16;;;-9.21;100.00
63700;BME280;49845;47.130;142.766;2023-12-20T06:36:57;100196.09;;;-9.24;100.00
63700;BME280;49845;47.130;142.766;2023-12-20T06:39:29;100195.09;;;-9.26;100.00
63700;BME280;49845;47.130;142.766;2023-12-20T06:42:02;100195.03;;;-9.28;100.00
63700;BME280;49845;47.130;142.766;2023-12-20T06:44:33;100193.09;;;-9.32;100.00
63700;BME280;49845;47.130;142.766;2023-12-20T06:47:03;100206.59;;;-9.31;100.00
63700;BME280;49845;47.130;142.766;2023-12-20T06:49:34;100163.75;;;-9.57;100.00
63700;BME280;49845;47.130;142.766;2023-12-20T06:52:05;100215.84;;;-9.32;100.00
63700;BME280;49845;47.130;142.766;2023-12-20T06:54:37;100221.72;;;-9.33;100.00
63700;BME280;49845;47.130;142.766;2023-12-20T06:57:07;100230.84;;;-9.35;100.00
63700;BME280;49845;47.130;142.766;2023-12-20T06:59:39;100227.34;;;-9.37;100.00
63700;BME280;49845;47.130;142.766;2023-12-20T07:02:09;100205.38;;;-9.38;100.00
63700;BME280;49845;47.130;142.766;2023-12-20T07:04:42;100222.09;;;-9.40;100.00
63700;BME280;49845;47.130;142.766;2023-12-20T07:07:12;100211.19;;;-9.39;100.00
63700;BME280;49845;47.130;142.766;2023-12-20T07:09:44;100226.38;;;-9.39;100.00
63700;BME280;49845;47.130;142.766;2023-12-20T07:12:15;100223.84;;;-9.39;100.00
63700;BME280;49845;47.130;142.766;2023-12-20T07:14:47;100223.66;;;-9.42;100.00
63700;BME280;49845;47.130;142.766;2023-12-20T07:17:17;100227.00;;;-9.43;100.00
63700;BME280;49845;47.130;142.766;2023-12-20T07:19:48;100233.59;;;-9.45;100.00
63700;BME280;49845;47.130;142.766;2023-12-20T07:22:18;100225.78;;;-9.48;100.00
63700;BME280;49845;47.130;142.766;2023-12-20T07:24:50;100229.22;;;-9.48;100.00
63700;BME280;49845;47.130;142.766;2023-12-20T07:27:23;100230.66;;;-9.51;100.00
63700;BME280;49845;47.130;142.766;2023-12-20T07:29:54;100228.13;;;-9.51;100.00
63700;BME280;49845;47.130;142.766;2023-12-20T07:32:24;100232.22;;;-9.53;100.00
63700;BME280;49845;47.130;142.766;2023-12-20T07:34:55;100228.75;;;-9.56;100.00
63700;BME280;49845;47.130;142.766;2023-12-20T07:37:25;100235.44;;;-9.56;100.00
63700;BME280;49845;47.130;142.766;2023-12-20T07:39:57;100233.00;;;-9.55;100.00
63700;BME280;49845;47.130;142.766;2023-12-20T07:42:28;100254.97;;;-9.53;100.00
63700;BME280;49845;47.130;142.766;2023-12-20T07:44:58;100251.50;;;-9.56;100.00
63700;BME280;49845;47.130;142.766;2023-12-20T07:47:29;100248.00;;;-9.58;100.00
63700;BME280;49845;47.130;142.766;2023-12-20T07:49:59;100243.63;;;-9.60;100.00
63700;BME280;49845;47.130;142.766;2023-12-20T07:52:30;100239.25;;;-9.63;100.00
63700;BME280;49845;47.130;142.766;2023-12-20T07:55:02;100260.66;;;-9.58;100.00
63700;BME280;49845;47.130;142.766;2023-12-20T07:57:33;100251.28;;;-9.59;100.00
63700;BME280;49845;47.130;142.766;2023-12-20T08:00:05;100257.94;;;-9.61;100.00
63700;BME280;49845;47.130;142.766;2023-12-20T08:02:36;100253.81;;;-9.59;100.00
63700;BME280;49845;47.130;142.766;2023-12-20T08:05:07;100252.94;;;-9.59;100.00
63700;BME280;49845;47.130;142.766;2023-12-20T08:07:38;100272.00;;;-9.64;100.00
63700;BME280;49845;47.130;142.766;2023-12-20T08:10:10;100259.28;;;-9.66;100.00
63700;BME280;49845;47.130;142.766;2023-12-20T08:12:41;100271.16;;;-9.65;100.00
63700;BME280;49845;47.130;142.766;2023-12-20T08:15:11;100277.19;;;-9.63;100.00
63700;BME280;49845;47.130;142.766;2023-12-20T08:17:42;100268.06;;;-9.61;100.00
63700;BME280;49845;47.130;142.766;2023-12-20T08:20:13;100277.25;;;-9.61;100.00
63700;BME280;49845;47.130;142.766;2023-12-20T08:22:53;100273.09;;;-9.61;100.00
63700;BME280;49845;47.130;142.766;2023-12-20T08:25:25;100263.00;;;-9.61;100.00
63700;BME280;49845;47.130;142.766;2023-12-20T08:27:56;100271.34;;;-9.62;100.00
63700;BME280;49845;47.130;142.766;2023-12-20T08:30:26;100269.41;;;-9.66;100.00
63700;BME280;49845;47.130;142.766;2023-12-20T08:32:57;100272.22;;;-9.61;100.00
63700;BME280;49845;47.130;142.766;2023-12-20T08:35:29;100278.16;;;-9.61;100.00
63700;BME280;49845;47.130;142.766;2023-12-20T08:37:59;100285.16;;;-9.57;100.00
63700;BME280;49845;47.130;142.766;2023-12-20T08:40:31;100278.53;;;-9.55;100.00
63700;BME280;49845;47.130;142.766;2023-12-20T08:43:02;100285.34;;;-9.53;100.00
63700;BME280;49845;47.130;142.766;2023-12-20T08:45:33;100286.91;;;-9.56;100.00
63700;BME280;49845;47.130;142.766;2023-12-20T08:48:03;100291.97;;;-9.56;100.00
63700;BME280;49845;47.130;142.766;2023-12-20T08:50:36;100293.34;;;-9.61;100.00
63700;BME280;49845;47.130;142.766;2023-12-20T08:53:07;100299.94;;;-9.63;100.00
63700;BME280;49845;47.130;142.766;2023-12-20T08:55:39;100301.31;;;-9.68;100.00
63700;BME280;49845;47.130;142.766;2023-12-20T08:58:10;100298.56;;;-9.71;100.00
63700;BME280;49845;47.130;142.766;2023-12-20T09:00:41;100306.13;;;-9.71;100.00
63700;BME280;49845;47.130;142.766;2023-12-20T09:03:11;100304.41;;;-9.72;100.00
63700;BME280;49845;47.130;142.766;2023-12-20T09:05:42;100305.06;;;-9.74;100.00
63700;BME280;49845;47.130;142.766;2023-12-20T09:08:12;100304.03;;;-9.78;100.00
63700;BME280;49845;47.130;142.766;2023-12-20T09:10:44;100300.31;;;-9.83;100.00
63700;BME280;49845;47.130;142.766;2023-12-20T09:13:15;100309.44;;;-9.85;100.00
63700;BME280;49845;47.130;142.766;2023-12-20T09:15:45;100311.19;;;-9.84;100.00
63700;BME280;49845;47.130;142.766;2023-12-20T09:18:16;100315.50;;;-9.83;100.00
63700;BME280;49845;47.130;142.766;2023-12-20T09:20:46;100310.50;;;-9.82;100.00
63700;BME280;49845;47.130;142.766;2023-12-20T09:23:17;100303.59;;;-9.84;100.00
63700;BME280;49845;47.130;142.766;2023-12-20T09:25:49;100298.53;;;-9.84;100.00
63700;BME280;49845;47.130;142.766;2023-12-20T09:28:24;100293.50;;;-9.84;100.00
63700;BME280;49845;47.130;142.766;2023-12-20T09:30:54;100305.38;;;-9.83;100.00
63700;BME280;49845;47.130;142.766;2023-12-20T09:33:25;100300.31;;;-9.83;100.00
63700;BME280;49845;47.130;142.766;2023-12-20T09:35:56;100304.47;;;-9.84;100.00
63700;BME280;49845;47.130;142.766;2023-12-20T09:38:27;100305.16;;;-9.86;100.00
63700;BME280;49845;47.130;142.766;2023-12-20T09:40:59;100298.34;;;-9.87;100.00
63700;BME280;49845;47.130;142.766;2023-12-20T09:43:31;100303.22;;;-9.90;100.00
63700;BME280;49845;47.130;142.766;2023-12-20T09:46:05;100304.09;;;-9.90;100.00
63700;BME280;49845;47.130;142.766;2023-12-20T09:48:37;100301.25;;;-9.94;100.00
63700;BME280;49845;47.130;142.766;2023-12-20T09:51:07;100301.44;;;-9.91;100.00
63700;BME280;49845;47.130;142.766;2023-12-20T09:53:38;100305.63;;;-9.92;100.00
63700;BME280;49845;47.130;142.766;2023-12-20T09:56:12;100296.38;;;-9.91;100.00
63700;BME280;49845;47.130;142.766;2023-12-20T09:58:43;100302.63;;;-9.86;100.00
63700;BME280;49845;47.130;142.766;2023-12-20T10:03:44;100299.34;;;-9.85;100.00
63700;BME280;49845;47.130;142.766;2023-12-20T10:06:15;100304.41;;;-9.85;100.00
63700;BME280;49845;47.130;142.766;2023-12-20T10:08:46;100306.91;;;-9.85;100.00
63700;BME280;49845;47.130;142.766;2023-12-20T10:11:18;100301.19;;;-9.83;100.00
63700;BME280;49845;47.130;142.766;2023-12-20T10:13:48;100303.59;;;-9.84;100.00
63700;BME280;49845;47.130;142.766;2023-12-20T10:16:24;100311.19;;;-9.84;100.00
63700;BME280;49845;47.130;142.766;2023-12-20T10:18:56;100311.09;;;-9.86;100.00
63700;BME280;49845;47.130;142.766;2023-12-20T10:21:27;100284.91;;;-10.00;100.00
63700;BME280;49845;47.130;142.766;2023-12-20T10:23:58;100310.81;;;-9.90;100.00
63700;BME280;49845;47.130;142.766;2023-12-20T10:26:30;100311.56;;;-9.91;100.00
63700;BME280;49845;47.130;142.766;2023-12-20T10:29:01;100313.88;;;-9.94;100.00
63700;BME280;49845;47.130;142.766;2023-12-20T10:31:33;100307.84;;;-9.96;100.00
63700;BME280;49845;47.130;142.766;2023-12-20T10:34:04;100328.28;;;-9.93;100.00
63700;BME280;49845;47.130;142.766;2023-12-20T10:36:35;100307.66;;;-10.00;100.00
63700;BME280;49845;47.130;142.766;2023-12-20T10:39:08;100316.91;;;-10.00;100.00
63700;BME280;49845;47.130;142.766;2023-12-20T10:41:42;100317.78;;;-10.00;100.00
63700;BME280;49845;47.130;142.766;2023-12-20T10:44:14;100319.31;;;-10.02;100.00
63700;BME280;49845;47.130;142.766;2023-12-20T10:46:44;100316.03;;;-10.01;100.00
63700;BME280;49845;47.130;142.766;2023-12-20T10:49:19;100321.75;;;-10.03;100.00
63700;BME280;49845;47.130;142.766;2023-12-20T10:51:51;100312.31;;;-10.06;100.00
63700;BME280;49845;47.130;142.766;2023-12-20T10:54:25;100324.16;;;-10.05;100.00
63700;BME280;49845;47.130;142.766;2023-12-20T10:56:58;100319.00;;;-10.06;100.00
63700;BME280;49845;47.130;142.766;2023-12-20T10:59:29;100317.75;;;-10.13;100.00
63700;BME280;49845;47.130;142.766;2023-12-20T11:02:04;100157.38;;;-11.08;100.00
63700;BME280;49845;47.130;142.766;2023-12-20T11:04:40;100312.09;;;-10.09;100.00
63700;BME280;49845;47.130;142.766;2023-12-20T11:07:19;100305.31;;;-10.10;100.00
63700;BME280;49845;47.130;142.766;2023-12-20T11:09:58;100308.59;;;-10.11;100.00
63700;BME280;49845;47.130;142.766;2023-12-20T11:12:41;100310.16;;;-10.13;100.00
63700;BME280;49845;47.130;142.766;2023-12-20T11:15:12;100306.16;;;-10.09;100.00
63700;BME280;49845;47.130;142.766;2023-12-20T11:17:45;100316.16;;;-10.11;100.00
63700;BME280;49845;47.130;142.766;2023-12-20T11:20:20;100316.97;;;-10.12;100.00
63700;BME280;49845;47.130;142.766;2023-12-20T11:22:54;100309.72;;;-10.19;100.00
63700;BME280;49845;47.130;142.766;2023-12-20T11:25:24;100308.19;;;-10.17;100.00
63700;BME280;49845;47.130;142.766;2023-12-20T11:28:11;100319.09;;;-10.18;100.00
63700;BME280;49845;47.130;142.766;2023-12-20T11:30:43;100312.75;;;-10.25;100.00
63700;BME280;49845;47.130;142.766;2023-12-20T11:33:16;100326.66;;;-10.18;100.00
63700;BME280;49845;47.130;142.766;2023-12-20T11:35:46;100321.63;;;-10.18;100.00
63700;BME280;49845;47.130;142.766;2023-12-20T11:38:17;100320.03;;;-10.16;100.00
63700;BME280;49845;47.130;142.766;2023-12-20T11:40:50;100318.50;;;-10.14;98.95
63700;BME280;49845;47.130;142.766;2023-12-20T11:43:40;100325.09;;;-10.16;98.65
63700;BME280;49845;47.130;142.766;2023-12-20T11:46:10;100319.09;;;-10.18;98.70
63700;BME280;49845;47.130;142.766;2023-12-20T11:48:41;100342.03;;;-10.15;97.47
63700;BME280;49845;47.130;142.766;2023-12-20T11:51:13;100324.91;;;-10.19;97.40
63700;BME280;49845;47.130;142.766;2023-12-20T11:53:43;100323.03;;;-10.22;95.04
63700;BME280;49845;47.130;142.766;2023-12-20T11:56:14;100331.50;;;-10.21;94.52
63700;BME280;49845;47.130;142.766;2023-12-20T11:58:46;100333.53;;;-10.29;95.79
63700;BME280;49845;47.130;142.766;2023-12-20T12:01:20;100334.88;;;-10.34;96.26
63700;BME280;49845;47.130;142.766;2023-12-20T12:04:02;100344.66;;;-10.38;97.22
63700;BME280;49845;47.130;142.766;2023-12-20T12:06:33;100342.72;;;-10.43;98.36
63700;BME280;49845;47.130;142.766;2023-12-20T12:09:04;100333.84;;;-10.49;99.19
63700;BME280;49845;47.130;142.766;2023-12-20T12:11:34;100343.28;;;-10.47;99.42
63700;BME280;49845;47.130;142.766;2023-12-20T12:14:07;100344.81;;;-10.49;99.44
63700;BME280;49845;47.130;142.766;2023-12-20T12:16:38;100343.28;;;-10.47;99.92
63700;BME280;49845;47.130;142.766;2023-12-20T12:19:20;100348.31;;;-10.47;100.00
63700;BME280;49845;47.130;142.766;2023-12-20T12:21:54;100342.63;;;-10.56;100.00
63700;BME280;49845;47.130;142.766;2023-12-20T12:24:34;100347.47;;;-10.47;100.00
63700;BME280;49845;47.130;142.766;2023-12-20T12:27:06;100348.31;;;-10.47;100.00
63700;BME280;49845;47.130;142.766;2023-12-20T12:29:39;100346.59;;;-10.48;100.00
63700;BME280;49845;47.130;142.766;2023-12-20T12:32:10;100339.56;;;-10.52;100.00
63700;BME280;49845;47.130;142.766;2023-12-20T12:34:40;100352.75;;;-10.56;100.00
63700;BME280;49845;47.130;142.766;2023-12-20T12:37:12;100357.78;;;-10.56;100.00
63700;BME280;49845;47.130;142.766;2023-12-20T12:39:42;100348.34;;;-10.58;100.00
63700;BME280;49845;47.130;142.766;2023-12-20T12:42:13;100292.03;;;-10.94;100.00
63700;BME280;49845;47.130;142.766;2023-12-20T12:44:45;100341.16;;;-10.66;100.00